sensor_id;sensor_type;location;lat;lon;timestamp;temperature;humidity
40758;DHT22;26462;47.384;19.218;2022-11-30T00:01:20;3.60;99.90
40758;DHT22;26462;47.384;19.218;2022-11-30T00:03:51;3.60;99.90
40758;DHT22;26462;47.384;19.218;2022-11-30T00:06:18;3.70;99.90
40758;DHT22;26462;47.384;19.218;2022-11-30T00:08:57;3.90;99.90
40758;DHT22;26462;47.384;19.218;2022-11-30T00:11:26;4.60;99.90
40758;DHT22;26462;47.384;19.218;2022-11-30T00:13:55;3.70;99.90
40758;DHT22;26462;47.384;19.218;2022-11-30T00:16:22;3.80;99.90
40758;DHT22;26462;47.384;19.218;2022-11-30T00:18:50;3.60;99.90
40758;DHT22;26462;47.384;19.218;2022-11-30T00:21:18;3.60;99.90
40758;DHT22;26462;47.384;19.218;2022-11-30T00:23:46;3.50;99.90
40758;DHT22;26462;47.384;19.218;2022-11-30T00:26:17;3.70;99.90
40758;DHT22;26462;47.384;19.218;2022-11-30T00:28:45;3.60;99.90
40758;DHT22;26462;47.384;19.218;2022-11-30T00:31:16;2.50;99.90
40758;DHT22;26462;47.384;19.218;2022-11-30T00:33:44;4.80;99.90
40758;DHT22;26462;47.384;19.218;2022-11-30T00:36:16;3.80;99.90
40758;DHT22;26462;47.384;19.218;2022-11-30T00:38:44;3.60;99.90
40758;DHT22;26462;47.384;19.218;2022-11-30T00:41:12;3.60;99.90
40758;DHT22;26462;47.384;19.218;2022-11-30T00:43:39;3.60;99.90
40758;DHT22;26462;47.384;19.218;2022-11-30T00:46:07;3.70;99.90
40758;DHT22;26462;47.384;19.218;2022-11-30T00:48:36;3.60;99.90
40758;DHT22;26462;47.384;19.218;2022-11-30T00:51:04;4.00;99.90
40758;DHT22;26462;47.384;19.218;2022-11-30T00:53:32;3.50;99.90
40758;DHT22;26462;47.384;19.218;2022-11-30T00:55:59;3.60;99.90
40758;DHT22;26462;47.384;19.218;2022-11-30T00:58:27;4.00;99.90
40758;DHT22;26462;47.384;19.218;2022-11-30T01:00:54;3.60;99.90
40758;DHT22;26462;47.384;19.218;2022-11-30T01:03:22;4.00;99.90
40758;DHT22;26462;47.384;19.218;2022-11-30T01:05:49;3.60;99.90
40758;DHT22;26462;47.384;19.218;2022-11-30T01:08:16;3.60;99.90
40758;DHT22;26462;47.384;19.218;2022-11-30T01:10:44;3.60;99.90
40758;DHT22;26462;47.384;19.218;2022-11-30T01:13:13;3.60;99.90
40758;DHT22;26462;47.384;19.218;2022-11-30T01:15:42;3.60;99.90
40758;DHT22;26462;47.384;19.218;2022-11-30T01:18:10;2.60;99.90
40758;DHT22;26462;47.384;19.218;2022-11-30T01:20:42;3.50;99.90
40758;DHT22;26462;47.384;19.218;2022-11-30T01:23:10;3.60;99.90
40758;DHT22;26462;47.384;19.218;2022-11-30T01:25:37;4.20;99.90
40758;DHT22;26462;47.384;19.218;2022-11-30T01:28:05;3.60;99.90
40758;DHT22;26462;47.384;19.218;2022-11-30T01:30:32;3.60;99.90
40758;DHT22;26462;47.384;19.218;2022-11-30T01:33:03;4.70;99.90
40758;DHT22;26462;47.384;19.218;2022-11-30T01:35:34;3.50;99.90
40758;DHT22;26462;47.384;19.218;2022-11-30T01:38:01;3.90;99.90
40758;DHT22;26462;47.384;19.218;2022-11-30T01:40:29;3.60;99.90
40758;DHT22;26462;47.384;19.218;2022-11-30T01:42:57;3.40;99.90
40758;DHT22;26462;47.384;19.218;2022-11-30T01:45:25;3.50;99.90
40758;DHT22;26462;47.384;19.218;2022-11-30T01:47:55;3.50;99.90
40758;DHT22;26462;47.384;19.218;2022-11-30T01:50:30;3.60;99.90
40758;DHT22;26462;47.384;19.218;2022-11-30T01:52:58;2.20;99.90
40758;DHT22;26462;47.384;19.218;2022-11-30T01:55:31;3.50;99.90
40758;DHT22;26462;47.384;19.218;2022-11-30T01:58:05;3.40;99.90
40758;DHT22;26462;47.384;19.218;2022-11-30T02:00:34;3.10;99.90
40758;DHT22;26462;47.384;19.218;2022-11-30T02:03:14;3.80;99.90
40758;DHT22;26462;47.384;19.218;2022-11-30T02:05:45;3.30;99.90
40758;DHT22;26462;47.384;19.218;2022-11-30T02:08:13;3.40;99.90
40758;DHT22;26462;47.384;19.218;2022-11-30T02:10:45;3.40;99.90
40758;DHT22;26462;47.384;19.218;2022-11-30T02:19:30;3.40;99.90
40758;DHT22;26462;47.384;19.218;2022-11-30T02:31:05;3.50;99.90
40758;DHT22;26462;47.384;19.218;2022-11-30T02:33:38;3.60;99.90
40758;DHT22;26462;47.384;19.218;2022-11-30T02:36:08;3.60;99.90
40758;DHT22;26462;47.384;19.218;2022-11-30T02:38:36;3.20;99.90
40758;DHT22;26462;47.384;19.218;2022-11-30T02:41:07;3.10;99.90
40758;DHT22;26462;47.384;19.218;2022-11-30T02:43:35;3.40;99.90
40758;DHT22;26462;47.384;19.218;2022-11-30T02:46:19;3.40;99.90
40758;DHT22;26462;47.384;19.218;2022-11-30T02:51:26;3.30;99.90
40758;DHT22;26462;47.384;19.218;2022-11-30T02:53:56;3.30;99.90
40758;DHT22;26462;47.384;19.218;2022-11-30T02:56:24;3.30;99.90
40758;DHT22;26462;47.384;19.218;2022-11-30T02:58:52;3.30;99.90
40758;DHT22;26462;47.384;19.218;2022-11-30T03:01:20;3.40;99.90
40758;DHT22;26462;47.384;19.218;2022-11-30T03:03:48;2.80;99.90
40758;DHT22;26462;47.384;19.218;2022-11-30T03:06:18;3.30;99.90
40758;DHT22;26462;47.384;19.218;2022-11-30T03:08:48;3.40;99.90
40758;DHT22;26462;47.384;19.218;2022-11-30T03:11:16;3.40;99.90
40758;DHT22;26462;47.384;19.218;2022-11-30T03:13:43;3.40;99.90
40758;DHT22;26462;47.384;19.218;2022-11-30T03:16:12;3.20;99.90
40758;DHT22;26462;47.384;19.218;2022-11-30T03:18:40;2.00;99.90
40758;DHT22;26462;47.384;19.218;2022-11-30T03:21:09;3.60;99.90
40758;DHT22;26462;47.384;19.218;2022-11-30T03:23:37;3.40;99.90
40758;DHT22;26462;47.384;19.218;2022-11-30T03:26:08;3.50;99.90
40758;DHT22;26462;47.384;19.218;2022-11-30T03:28:36;3.40;99.90
40758;DHT22;26462;47.384;19.218;2022-11-30T03:31:04;3.70;99.90
40758;DHT22;26462;47.384;19.218;2022-11-30T03:33:31;3.40;99.90
40758;DHT22;26462;47.384;19.218;2022-11-30T03:36:04;3.40;99.90
40758;DHT22;26462;47.384;19.218;2022-11-30T03:38:33;3.40;99.90
40758;DHT22;26462;47.384;19.218;2022-11-30T03:41:03;2.10;99.90
40758;DHT22;26462;47.384;19.218;2022-11-30T03:43:31;3.40;99.90
40758;DHT22;26462;47.384;19.218;2022-11-30T03:45:58;2.70;99.90
40758;DHT22;26462;47.384;19.218;2022-11-30T03:48:26;3.40;99.90
40758;DHT22;26462;47.384;19.218;2022-11-30T03:50:54;3.40;99.90
40758;DHT22;26462;47.384;19.218;2022-11-30T03:53:24;3.40;99.90
40758;DHT22;26462;47.384;19.218;2022-11-30T03:55:54;2.70;99.90
40758;DHT22;26462;47.384;19.218;2022-11-30T03:58:22;3.40;99.90
40758;DHT22;26462;47.384;19.218;2022-11-30T04:01:00;1.90;99.90
40758;DHT22;26462;47.384;19.218;2022-11-30T04:03:28;3.90;99.90
40758;DHT22;26462;47.384;19.218;2022-11-30T04:05:56;3.40;99.90
40758;DHT22;26462;47.384;19.218;2022-11-30T04:08:24;3.60;99.90
40758;DHT22;26462;47.384;19.218;2022-11-30T04:10:54;2.20;99.90
40758;DHT22;26462;47.384;19.218;2022-11-30T04:13:22;3.40;99.90
40758;DHT22;26462;47.384;19.218;2022-11-30T04:15:51;3.40;99.90
40758;DHT22;26462;47.384;19.218;2022-11-30T04:18:24;3.80;99.90
40758;DHT22;26462;47.384;19.218;2022-11-30T04:20:53;2.70;99.90
40758;DHT22;26462;47.384;19.218;2022-11-30T04:23:23;3.40;99.90
40758;DHT22;26462;47.384;19.218;2022-11-30T04:25:51;3.40;99.90
40758;DHT22;26462;47.384;19.218;2022-11-30T04:28:21;3.70;99.90
40758;DHT22;26462;47.384;19.218;2022-11-30T04:30:49;3.30;99.90
40758;DHT22;26462;47.384;19.218;2022-11-30T04:33:19;3.40;99.90
40758;DHT22;26462;47.384;19.218;2022-11-30T04:35:56;2.00;99.90
40758;DHT22;26462;47.384;19.218;2022-11-30T04:38:25;3.20;99.90
40758;DHT22;26462;47.384;19.218;2022-11-30T04:40:53;3.60;99.90
40758;DHT22;26462;47.384;19.218;2022-11-30T04:43:21;3.40;99.90
40758;DHT22;26462;47.384;19.218;2022-11-30T04:45:51;3.40;99.90
40758;DHT22;26462;47.384;19.218;2022-11-30T04:48:21;3.30;99.90
40758;DHT22;26462;47.384;19.218;2022-11-30T04:50:49;3.40;99.90
40758;DHT22;26462;47.384;19.218;2022-11-30T04:53:16;3.40;99.90
40758;DHT22;26462;47.384;19.218;2022-11-30T04:55:44;3.30;99.90
40758;DHT22;26462;47.384;19.218;2022-11-30T04:58:11;3.40;99.90
40758;DHT22;26462;47.384;19.218;2022-11-30T05:00:39;3.20;99.90
40758;DHT22;26462;47.384;19.218;2022-11-30T05:03:06;3.40;99.90
40758;DHT22;26462;47.384;19.218;2022-11-30T05:05:34;1.80;99.90
40758;DHT22;26462;47.384;19.218;2022-11-30T05:08:01;3.50;99.90
40758;DHT22;26462;47.384;19.218;2022-11-30T05:10:29;3.50;99.90
40758;DHT22;26462;47.384;19.218;2022-11-30T05:12:59;2.90;99.90
40758;DHT22;26462;47.384;19.218;2022-11-30T05:15:27;2.90;99.90
40758;DHT22;26462;47.384;19.218;2022-11-30T05:17:58;4.60;99.90
40758;DHT22;26462;47.384;19.218;2022-11-30T05:20:26;4.70;99.90
40758;DHT22;26462;47.384;19.218;2022-11-30T05:22:56;4.00;99.90
40758;DHT22;26462;47.384;19.218;2022-11-30T05:25:24;3.20;99.90
40758;DHT22;26462;47.384;19.218;2022-11-30T05:27:52;3.40;99.90
40758;DHT22;26462;47.384;19.218;2022-11-30T05:30:19;3.50;99.90
40758;DHT22;26462;47.384;19.218;2022-11-30T05:32:47;3.40;99.90
40758;DHT22;26462;47.384;19.218;2022-11-30T05:35:14;3.40;99.90
40758;DHT22;26462;47.384;19.218;2022-11-30T05:37:42;3.40;99.90
40758;DHT22;26462;47.384;19.218;2022-11-30T05:40:09;3.20;99.90
40758;DHT22;26462;47.384;19.218;2022-11-30T05:42:37;3.20;99.90
40758;DHT22;26462;47.384;19.218;2022-11-30T05:45:04;3.20;99.90
40758;DHT22;26462;47.384;19.218;2022-11-30T05:47:32;3.10;99.90
40758;DHT22;26462;47.384;19.218;2022-11-30T05:50:00;1.80;99.90
40758;DHT22;26462;47.384;19.218;2022-11-30T05:52:27;3.40;99.90
40758;DHT22;26462;47.384;19.218;2022-11-30T05:54:55;3.80;99.90
40758;DHT22;26462;47.384;19.218;2022-11-30T05:57:22;3.30;99.90
40758;DHT22;26462;47.384;19.218;2022-11-30T05:59:50;2.80;99.90
40758;DHT22;26462;47.384;19.218;2022-11-30T06:02:17;2.70;99.90
40758;DHT22;26462;47.384;19.218;2022-11-30T06:04:52;3.40;99.90
40758;DHT22;26462;47.384;19.218;2022-11-30T06:07:20;3.40;99.90
40758;DHT22;26462;47.384;19.218;2022-11-30T06:09:53;3.40;99.90
40758;DHT22;26462;47.384;19.218;2022-11-30T06:12:21;2.20;99.90
40758;DHT22;26462;47.384;19.218;2022-11-30T06:14:48;3.30;99.90
40758;DHT22;26462;47.384;19.218;2022-11-30T06:17:16;3.30;99.90
40758;DHT22;26462;47.384;19.218;2022-11-30T06:19:44;3.70;99.90
40758;DHT22;26462;47.384;19.218;2022-11-30T06:22:11;3.40;99.90
40758;DHT22;26462;47.384;19.218;2022-11-30T06:24:39;3.20;99.90
40758;DHT22;26462;47.384;19.218;2022-11-30T06:27:06;4.70;99.90
40758;DHT22;26462;47.384;19.218;2022-11-30T06:29:33;2.30;99.90
40758;DHT22;26462;47.384;19.218;2022-11-30T06:32:01;3.40;99.90
40758;DHT22;26462;47.384;19.218;2022-11-30T06:34:31;3.40;99.90
40758;DHT22;26462;47.384;19.218;2022-11-30T06:36:59;3.50;99.90
40758;DHT22;26462;47.384;19.218;2022-11-30T06:39:26;3.50;99.90
40758;DHT22;26462;47.384;19.218;2022-11-30T06:42:14;3.40;99.90
40758;DHT22;26462;47.384;19.218;2022-11-30T06:44:41;3.50;99.90
40758;DHT22;26462;47.384;19.218;2022-11-30T06:47:08;2.90;99.90
40758;DHT22;26462;47.384;19.218;2022-11-30T06:49:36;3.00;99.90
40758;DHT22;26462;47.384;19.218;2022-11-30T06:52:04;3.60;99.90
40758;DHT22;26462;47.384;19.218;2022-11-30T06:54:32;3.60;99.90
40758;DHT22;26462;47.384;19.218;2022-11-30T06:56:59;3.60;99.90
40758;DHT22;26462;47.384;19.218;2022-11-30T06:59:27;3.60;99.90
40758;DHT22;26462;47.384;19.218;2022-11-30T09:39:44;6.40;92.70
40758;DHT22;26462;47.384;19.218;2022-11-30T09:59:48;5.70;92.00
40758;DHT22;26462;47.384;19.218;2022-11-30T10:26:11;5.70;90.70
40758;DHT22;26462;47.384;19.218;2022-11-30T10:48:42;6.10;90.80
40758;DHT22;26462;47.384;19.218;2022-11-30T10:52:12;5.80;90.90
40758;DHT22;26462;47.384;19.218;2022-11-30T10:54:43;6.10;91.30
40758;DHT22;26462;47.384;19.218;2022-11-30T10:57:46;6.00;90.60
40758;DHT22;26462;47.384;19.218;2022-11-30T11:00:18;6.00;91.00
40758;DHT22;26462;47.384;19.218;2022-11-30T11:02:53;6.00;91.10
40758;DHT22;26462;47.384;19.218;2022-11-30T11:05:32;5.90;91.40
40758;DHT22;26462;47.384;19.218;2022-11-30T11:15:57;6.10;91.80
40758;DHT22;26462;47.384;19.218;2022-11-30T11:18:33;6.10;92.20
40758;DHT22;26462;47.384;19.218;2022-11-30T11:28:21;6.10;92.30
40758;DHT22;26462;47.384;19.218;2022-11-30T11:30:57;6.10;92.40
40758;DHT22;26462;47.384;19.218;2022-11-30T11:44:49;6.20;92.70
40758;DHT22;26462;47.384;19.218;2022-11-30T11:51:06;6.20;93.10
40758;DHT22;26462;47.384;19.218;2022-11-30T11:53:52;6.10;93.10
40758;DHT22;26462;47.384;19.218;2022-11-30T12:33:37;6.30;94.60
40758;DHT22;26462;47.384;19.218;2022-11-30T15:40:33;5.30;96.80
40758;DHT22;26462;47.384;19.218;2022-11-30T15:43:01;5.30;97.10
40758;DHT22;26462;47.384;19.218;2022-11-30T15:45:32;5.30;97.00
40758;DHT22;26462;47.384;19.218;2022-11-30T15:48:37;4.00;97.00
40758;DHT22;26462;47.384;19.218;2022-11-30T15:51:14;5.00;97.60
40758;DHT22;26462;47.384;19.218;2022-11-30T15:53:50;5.20;97.80
40758;DHT22;26462;47.384;19.218;2022-11-30T15:56:22;5.20;98.30
40758;DHT22;26462;47.384;19.218;2022-11-30T16:01:56;5.10;98.00
40758;DHT22;26462;47.384;19.218;2022-11-30T16:07:25;5.10;98.50
40758;DHT22;26462;47.384;19.218;2022-11-30T16:10:04;5.70;98.40
40758;DHT22;26462;47.384;19.218;2022-11-30T16:12:33;5.00;98.60
40758;DHT22;26462;47.384;19.218;2022-11-30T16:15:00;5.00;99.00
40758;DHT22;26462;47.384;19.218;2022-11-30T16:17:28;5.00;98.70
40758;DHT22;26462;47.384;19.218;2022-11-30T16:19:56;5.00;98.70
40758;DHT22;26462;47.384;19.218;2022-11-30T16:22:23;4.10;98.20
40758;DHT22;26462;47.384;19.218;2022-11-30T16:24:50;4.70;98.40
40758;DHT22;26462;47.384;19.218;2022-11-30T16:27:19;5.00;97.70
40758;DHT22;26462;47.384;19.218;2022-11-30T16:29:48;4.90;97.60
40758;DHT22;26462;47.384;19.218;2022-11-30T16:32:18;5.00;97.30
40758;DHT22;26462;47.384;19.218;2022-11-30T16:34:46;5.00;96.80
40758;DHT22;26462;47.384;19.218;2022-11-30T16:37:14;5.00;96.70
40758;DHT22;26462;47.384;19.218;2022-11-30T16:39:41;5.10;96.70
40758;DHT22;26462;47.384;19.218;2022-11-30T16:42:11;5.00;96.70
40758;DHT22;26462;47.384;19.218;2022-11-30T16:44:39;4.90;96.50
40758;DHT22;26462;47.384;19.218;2022-11-30T16:47:06;4.90;96.70
40758;DHT22;26462;47.384;19.218;2022-11-30T16:49:34;5.80;97.10
40758;DHT22;26462;47.384;19.218;2022-11-30T16:52:01;5.10;97.20
40758;DHT22;26462;47.384;19.218;2022-11-30T16:54:29;4.90;97.00
40758;DHT22;26462;47.384;19.218;2022-11-30T16:56:57;4.90;97.10
40758;DHT22;26462;47.384;19.218;2022-11-30T16:59:24;4.90;97.40
40758;DHT22;26462;47.384;19.218;2022-11-30T17:01:52;4.80;97.40
40758;DHT22;26462;47.384;19.218;2022-11-30T17:04:23;4.80;97.50
40758;DHT22;26462;47.384;19.218;2022-11-30T17:06:52;4.80;97.70
40758;DHT22;26462;47.384;19.218;2022-11-30T17:09:28;4.80;98.00
40758;DHT22;26462;47.384;19.218;2022-11-30T17:11:56;4.80;97.90
40758;DHT22;26462;47.384;19.218;2022-11-30T17:14:23;4.90;97.80
40758;DHT22;26462;47.384;19.218;2022-11-30T17:16:51;4.80;97.80
40758;DHT22;26462;47.384;19.218;2022-11-30T17:19:19;4.90;97.90
40758;DHT22;26462;47.384;19.218;2022-11-30T17:21:49;4.80;97.80
40758;DHT22;26462;47.384;19.218;2022-11-30T17:24:16;5.80;98.30
40758;DHT22;26462;47.384;19.218;2022-11-30T17:26:44;4.80;98.10
40758;DHT22;26462;47.384;19.218;2022-11-30T17:29:11;4.70;98.20
40758;DHT22;26462;47.384;19.218;2022-11-30T17:31:38;4.80;98.40
40758;DHT22;26462;47.384;19.218;2022-11-30T17:34:06;5.00;98.70
40758;DHT22;26462;47.384;19.218;2022-11-30T17:36:34;5.40;98.90
40758;DHT22;26462;47.384;19.218;2022-11-30T17:39:06;4.00;98.80
40758;DHT22;26462;47.384;19.218;2022-11-30T17:41:34;4.70;99.00
40758;DHT22;26462;47.384;19.218;2022-11-30T17:44:02;5.90;99.70
40758;DHT22;26462;47.384;19.218;2022-11-30T17:46:29;4.70;99.50
40758;DHT22;26462;47.384;19.218;2022-11-30T17:48:57;4.60;99.80
40758;DHT22;26462;47.384;19.218;2022-11-30T17:51:25;4.60;99.90
40758;DHT22;26462;47.384;19.218;2022-11-30T17:53:53;4.40;99.90
40758;DHT22;26462;47.384;19.218;2022-11-30T17:56:21;4.30;99.90
40758;DHT22;26462;47.384;19.218;2022-11-30T17:58:49;4.60;99.90
40758;DHT22;26462;47.384;19.218;2022-11-30T18:01:18;4.60;99.90
40758;DHT22;26462;47.384;19.218;2022-11-30T18:03:50;4.50;99.90
40758;DHT22;26462;47.384;19.218;2022-11-30T18:06:18;4.60;99.90
40758;DHT22;26462;47.384;19.218;2022-11-30T18:08:46;4.60;99.90
40758;DHT22;26462;47.384;19.218;2022-11-30T18:11:17;4.50;99.90
40758;DHT22;26462;47.384;19.218;2022-11-30T18:13:47;4.60;99.90
40758;DHT22;26462;47.384;19.218;2022-11-30T18:16:27;4.50;99.90
40758;DHT22;26462;47.384;19.218;2022-11-30T18:18:55;4.60;99.90
40758;DHT22;26462;47.384;19.218;2022-11-30T18:21:27;4.50;99.90
40758;DHT22;26462;47.384;19.218;2022-11-30T18:23:56;4.60;99.90
40758;DHT22;26462;47.384;19.218;2022-11-30T18:26:25;4.60;99.90
40758;DHT22;26462;47.384;19.218;2022-11-30T18:28:56;4.50;99.90
40758;DHT22;26462;47.384;19.218;2022-11-30T18:31:24;4.10;99.90
40758;DHT22;26462;47.384;19.218;2022-11-30T18:33:54;4.50;99.90
40758;DHT22;26462;47.384;19.218;2022-11-30T18:36:23;4.60;99.90
40758;DHT22;26462;47.384;19.218;2022-11-30T18:38:52;4.50;99.90
40758;DHT22;26462;47.384;19.218;2022-11-30T18:41:20;4.50;99.90
40758;DHT22;26462;47.384;19.218;2022-11-30T18:43:48;4.50;99.90
40758;DHT22;26462;47.384;19.218;2022-11-30T18:46:16;4.50;99.90
40758;DHT22;26462;47.384;19.218;2022-11-30T18:48:48;5.00;99.90
40758;DHT22;26462;47.384;19.218;2022-11-30T18:51:20;4.50;99.90
40758;DHT22;26462;47.384;19.218;2022-11-30T18:53:50;4.50;99.90
40758;DHT22;26462;47.384;19.218;2022-11-30T18:56:28;4.50;99.90
40758;DHT22;26462;47.384;19.218;2022-11-30T18:59:12;4.30;99.90
40758;DHT22;26462;47.384;19.218;2022-11-30T19:01:40;5.40;99.90
40758;DHT22;26462;47.384;19.218;2022-11-30T19:04:09;4.60;99.90
40758;DHT22;26462;47.384;19.218;2022-11-30T19:06:40;4.40;99.90
40758;DHT22;26462;47.384;19.218;2022-11-30T19:09:13;5.00;99.90
40758;DHT22;26462;47.384;19.218;2022-11-30T19:11:42;4.50;99.90
40758;DHT22;26462;47.384;19.218;2022-11-30T19:14:15;4.50;99.90
40758;DHT22;26462;47.384;19.218;2022-11-30T19:16:45;4.50;99.90
40758;DHT22;26462;47.384;19.218;2022-11-30T19:19:14;3.80;99.90
40758;DHT22;26462;47.384;19.218;2022-11-30T19:21:43;4.90;99.90
40758;DHT22;26462;47.384;19.218;2022-11-30T19:24:15;4.50;99.90
40758;DHT22;26462;47.384;19.218;2022-11-30T19:26:43;4.10;99.90
40758;DHT22;26462;47.384;19.218;2022-11-30T19:29:11;4.50;99.90
40758;DHT22;26462;47.384;19.218;2022-11-30T19:31:39;4.50;99.90
40758;DHT22;26462;47.384;19.218;2022-11-30T19:34:07;4.50;99.90
40758;DHT22;26462;47.384;19.218;2022-11-30T19:36:39;5.70;99.90
40758;DHT22;26462;47.384;19.218;2022-11-30T19:39:08;4.50;99.90
40758;DHT22;26462;47.384;19.218;2022-11-30T19:41:37;4.50;99.90
40758;DHT22;26462;47.384;19.218;2022-11-30T19:44:12;4.50;99.90
40758;DHT22;26462;47.384;19.218;2022-11-30T19:46:40;4.40;99.90
40758;DHT22;26462;47.384;19.218;2022-11-30T19:49:09;4.50;99.90
40758;DHT22;26462;47.384;19.218;2022-11-30T19:51:37;4.40;99.90
40758;DHT22;26462;47.384;19.218;2022-11-30T19:54:05;4.50;99.90
40758;DHT22;26462;47.384;19.218;2022-11-30T19:56:32;4.50;99.90
40758;DHT22;26462;47.384;19.218;2022-11-30T19:59:05;4.50;99.90
40758;DHT22;26462;47.384;19.218;2022-11-30T20:01:34;5.10;99.90
40758;DHT22;26462;47.384;19.218;2022-11-30T20:04:04;4.50;99.90
40758;DHT22;26462;47.384;19.218;2022-11-30T20:06:36;4.50;99.90
40758;DHT22;26462;47.384;19.218;2022-11-30T20:09:05;4.40;99.90
40758;DHT22;26462;47.384;19.218;2022-11-30T20:11:33;4.50;99.90
40758;DHT22;26462;47.384;19.218;2022-11-30T20:14:02;4.50;99.90
40758;DHT22;26462;47.384;19.218;2022-11-30T20:16:30;4.60;99.90
40758;DHT22;26462;47.384;19.218;2022-11-30T20:18:59;5.40;99.90
40758;DHT22;26462;47.384;19.218;2022-11-30T20:21:30;3.40;99.90
40758;DHT22;26462;47.384;19.218;2022-11-30T20:24:00;4.50;99.90
40758;DHT22;26462;47.384;19.218;2022-11-30T20:26:30;4.50;99.90
40758;DHT22;26462;47.384;19.218;2022-11-30T20:29:00;4.50;99.90
40758;DHT22;26462;47.384;19.218;2022-11-30T20:31:30;4.50;99.90
40758;DHT22;26462;47.384;19.218;2022-11-30T20:33:58;5.10;99.90
40758;DHT22;26462;47.384;19.218;2022-11-30T20:36:26;5.10;99.90
40758;DHT22;26462;47.384;19.218;2022-11-30T20:38:54;4.30;99.90
40758;DHT22;26462;47.384;19.218;2022-11-30T20:41:23;4.40;99.90
40758;DHT22;26462;47.384;19.218;2022-11-30T20:43:52;4.40;99.90
40758;DHT22;26462;47.384;19.218;2022-11-30T20:48:52;4.40;99.90
40758;DHT22;26462;47.384;19.218;2022-11-30T20:51:28;4.40;99.90
40758;DHT22;26462;47.384;19.218;2022-11-30T20:54:00;4.50;99.90
40758;DHT22;26462;47.384;19.218;2022-11-30T20:56:34;4.40;99.90
40758;DHT22;26462;47.384;19.218;2022-11-30T20:59:07;4.50;99.90
40758;DHT22;26462;47.384;19.218;2022-11-30T21:01:43;4.40;99.90
40758;DHT22;26462;47.384;19.218;2022-11-30T21:04:13;4.50;99.90
40758;DHT22;26462;47.384;19.218;2022-11-30T21:06:40;4.40;99.90
40758;DHT22;26462;47.384;19.218;2022-11-30T21:09:16;5.70;99.90
40758;DHT22;26462;47.384;19.218;2022-11-30T21:11:45;4.40;99.90
40758;DHT22;26462;47.384;19.218;2022-11-30T21:14:12;4.40;99.90
40758;DHT22;26462;47.384;19.218;2022-11-30T21:16:40;4.40;99.90
40758;DHT22;26462;47.384;19.218;2022-11-30T21:19:08;3.90;99.90
40758;DHT22;26462;47.384;19.218;2022-11-30T21:21:37;4.90;99.90
40758;DHT22;26462;47.384;19.218;2022-11-30T21:24:07;4.30;99.90
40758;DHT22;26462;47.384;19.218;2022-11-30T21:26:39;4.40;99.90
40758;DHT22;26462;47.384;19.218;2022-11-30T21:29:13;4.30;99.90
40758;DHT22;26462;47.384;19.218;2022-11-30T21:31:40;4.40;99.90
40758;DHT22;26462;47.384;19.218;2022-11-30T21:34:08;4.30;99.90
40758;DHT22;26462;47.384;19.218;2022-11-30T21:36:35;3.80;99.90
40758;DHT22;26462;47.384;19.218;2022-11-30T21:39:04;5.30;99.90
40758;DHT22;26462;47.384;19.218;2022-11-30T21:41:38;4.30;99.90
40758;DHT22;26462;47.384;19.218;2022-11-30T21:44:12;4.20;99.90
40758;DHT22;26462;47.384;19.218;2022-11-30T21:46:40;5.70;99.90
40758;DHT22;26462;47.384;19.218;2022-11-30T21:49:08;4.70;99.90
40758;DHT22;26462;47.384;19.218;2022-11-30T21:51:35;3.60;99.90
40758;DHT22;26462;47.384;19.218;2022-11-30T21:54:05;4.40;99.90
40758;DHT22;26462;47.384;19.218;2022-11-30T21:56:35;4.20;99.90
40758;DHT22;26462;47.384;19.218;2022-11-30T21:59:04;4.10;99.90
40758;DHT22;26462;47.384;19.218;2022-11-30T22:01:34;4.00;99.90
40758;DHT22;26462;47.384;19.218;2022-11-30T22:04:04;4.50;99.90
40758;DHT22;26462;47.384;19.218;2022-11-30T22:06:33;4.10;99.90
40758;DHT22;26462;47.384;19.218;2022-11-30T22:09:03;4.20;99.90
40758;DHT22;26462;47.384;19.218;2022-11-30T22:11:36;4.20;99.90
40758;DHT22;26462;47.384;19.218;2022-11-30T22:14:06;4.10;99.90
40758;DHT22;26462;47.384;19.218;2022-11-30T22:16:33;3.10;99.90
40758;DHT22;26462;47.384;19.218;2022-11-30T22:19:03;4.60;99.90
40758;DHT22;26462;47.384;19.218;2022-11-30T22:21:31;4.30;99.90
40758;DHT22;26462;47.384;19.218;2022-11-30T22:24:00;4.10;99.90
40758;DHT22;26462;47.384;19.218;2022-11-30T22:26:36;4.00;99.90
40758;DHT22;26462;47.384;19.218;2022-11-30T22:29:10;3.80;99.90
40758;DHT22;26462;47.384;19.218;2022-11-30T22:31:40;4.80;99.90
40758;DHT22;26462;47.384;19.218;2022-11-30T22:34:09;4.00;99.90
40758;DHT22;26462;47.384;19.218;2022-11-30T22:36:38;4.10;99.90
40758;DHT22;26462;47.384;19.218;2022-11-30T22:39:11;4.10;99.90
40758;DHT22;26462;47.384;19.218;2022-11-30T22:41:43;3.90;99.90
40758;DHT22;26462;47.384;19.218;2022-11-30T22:44:20;3.70;99.90
40758;DHT22;26462;47.384;19.218;2022-11-30T22:46:48;4.00;99.90
40758;DHT22;26462;47.384;19.218;2022-11-30T22:49:16;3.90;99.90
40758;DHT22;26462;47.384;19.218;2022-11-30T22:51:47;4.00;99.90
40758;DHT22;26462;47.384;19.218;2022-11-30T22:54:15;3.90;99.90
40758;DHT22;26462;47.384;19.218;2022-11-30T22:56:43;5.20;99.90
40758;DHT22;26462;47.384;19.218;2022-11-30T22:59:13;3.90;99.90
40758;DHT22;26462;47.384;19.218;2022-11-30T23:01:45;3.90;99.90
40758;DHT22;26462;47.384;19.218;2022-11-30T23:04:16;4.00;99.90
40758;DHT22;26462;47.384;19.218;2022-11-30T23:06:45;3.90;99.90
40758;DHT22;26462;47.384;19.218;2022-11-30T23:09:17;5.50;99.90
40758;DHT22;26462;47.384;19.218;2022-11-30T23:11:45;3.90;99.90
40758;DHT22;26462;47.384;19.218;2022-11-30T23:14:12;4.00;99.90
40758;DHT22;26462;47.384;19.218;2022-11-30T23:16:43;3.90;99.90
40758;DHT22;26462;47.384;19.218;2022-11-30T23:19:11;3.70;99.90
40758;DHT22;26462;47.384;19.218;2022-11-30T23:21:41;3.30;99.90
40758;DHT22;26462;47.384;19.218;2022-11-30T23:24:17;4.00;99.90
40758;DHT22;26462;47.384;19.218;2022-11-30T23:26:47;3.90;99.90
40758;DHT22;26462;47.384;19.218;2022-11-30T23:29:17;4.40;99.90
40758;DHT22;26462;47.384;19.218;2022-11-30T23:31:45;4.00;99.90
40758;DHT22;26462;47.384;19.218;2022-11-30T23:34:19;2.60;99.90
40758;DHT22;26462;47.384;19.218;2022-11-30T23:36:48;3.80;99.90
40758;DHT22;26462;47.384;19.218;2022-11-30T23:39:16;3.90;99.90
40758;DHT22;26462;47.384;19.218;2022-11-30T23:41:45;4.10;99.90
40758;DHT22;26462;47.384;19.218;2022-11-30T23:44:12;3.70;99.90
40758;DHT22;26462;47.384;19.218;2022-11-30T23:46:40;3.70;99.90
40758;DHT22;26462;47.384;19.218;2022-11-30T23:49:07;3.70;99.90
40758;DHT22;26462;47.384;19.218;2022-11-30T23:51:35;3.60;99.90
40758;DHT22;26462;47.384;19.218;2022-11-30T23:54:03;3.60;99.90
40758;DHT22;26462;47.384;19.218;2022-11-30T23:56:31;3.50;99.90
40758;DHT22;26462;47.384;19.218;2022-11-30T23:58:58;2.30;99.90
